createdAt,value
2022-08-26T00:01:10.317Z,6.47
2022-08-26T00:03:36.695Z,6.40
2022-08-26T00:06:03.101Z,6.70
2022-08-26T00:08:29.448Z,6.28
2022-08-26T00:10:55.791Z,6.72
2022-08-26T00:13:26.278Z,6.78
2022-08-26T00:15:52.723Z,6.47
2022-08-26T00:18:22.305Z,6.30
2022-08-26T00:20:49.609Z,6.80
2022-08-26T00:23:16.465Z,6.30
2022-08-26T00:25:42.798Z,7.00
2022-08-26T00:28:10.806Z,6.43
2022-08-26T00:30:38.128Z,6.53
2022-08-26T00:33:06.103Z,6.18
2022-08-26T00:35:34.154Z,6.55
2022-08-26T00:38:01.038Z,6.80
2022-08-26T00:40:32.189Z,6.57
2022-08-26T00:42:58.641Z,6.40
2022-08-26T00:45:25.160Z,6.30
2022-08-26T00:47:54.605Z,7.10
2022-08-26T00:50:28.384Z,6.40
2022-08-26T00:52:57.677Z,6.70
2022-08-26T00:55:37.706Z,6.78
2022-08-26T00:58:05.564Z,6.90
2022-08-26T01:00:32.212Z,6.03
2022-08-26T01:02:59.345Z,6.70
2022-08-26T01:05:25.695Z,7.00
2022-08-26T01:07:52.155Z,6.07
2022-08-26T01:10:24.348Z,6.35
2022-08-26T01:12:57.306Z,6.13
2022-08-26T01:15:25.452Z,6.47
2022-08-26T01:17:52.015Z,6.70
2022-08-26T01:20:41.057Z,6.40
2022-08-26T01:23:08.946Z,6.55
2022-08-26T01:25:38.996Z,6.40
2022-08-26T01:28:08.905Z,6.30
2022-08-26T01:30:37.384Z,6.65
2022-08-26T01:33:05.467Z,6.20
2022-08-26T01:35:31.944Z,6.57
2022-08-26T01:37:58.798Z,6.43
2022-08-26T01:40:27.498Z,6.65
2022-08-26T01:42:54.577Z,6.65
2022-08-26T01:45:25.454Z,6.60
2022-08-26T01:47:56.890Z,6.57
2022-08-26T01:50:35.084Z,6.75
2022-08-26T01:53:05.686Z,6.47
2022-08-26T01:55:34.114Z,6.07
2022-08-26T01:58:04.590Z,6.25
2022-08-26T02:00:32.216Z,6.55
2022-08-26T02:03:17.219Z,6.57
2022-08-26T02:05:54.978Z,6.85
2022-08-26T02:08:41.700Z,7.07
2022-08-26T02:11:08.129Z,6.78
2022-08-26T02:13:37.279Z,6.88
2022-08-26T02:16:04.004Z,7.15
2022-08-26T02:18:32.994Z,6.65
2022-08-26T02:20:59.464Z,6.75
2022-08-26T02:23:26.139Z,6.95
2022-08-26T02:25:58.800Z,7.28
2022-08-26T02:28:28.126Z,6.88
2022-08-26T02:30:55.739Z,7.40
2022-08-26T02:33:22.276Z,6.40
2022-08-26T02:35:48.627Z,6.65
2022-08-26T02:38:14.953Z,7.22
2022-08-26T02:40:42.104Z,6.75
2022-08-26T02:43:08.801Z,7.60
2022-08-26T02:45:35.777Z,6.63
2022-08-26T02:48:09.110Z,6.95
2022-08-26T02:50:36.653Z,6.35
2022-08-26T02:53:02.998Z,6.40
2022-08-26T02:55:29.346Z,6.32
2022-08-26T02:57:55.821Z,6.53
2022-08-26T03:00:22.455Z,6.65
2022-08-26T03:02:50.269Z,6.53
2022-08-26T03:05:17.844Z,6.28
2022-08-26T03:07:44.149Z,6.60
2022-08-26T03:10:13.113Z,6.60
2022-08-26T03:12:39.796Z,6.50
2022-08-26T03:15:16.463Z,6.57
2022-08-26T03:17:44.401Z,6.55
2022-08-26T03:20:10.981Z,6.10
2022-08-26T03:22:40.077Z,7.28
2022-08-26T03:25:07.262Z,6.25
2022-08-26T03:27:33.893Z,6.65
2022-08-26T03:30:18.814Z,6.57
2022-08-26T03:32:46.440Z,6.60
2022-08-26T03:35:12.791Z,6.88
2022-08-26T03:37:39.654Z,7.28
2022-08-26T03:40:07.497Z,6.82
2022-08-26T03:42:35.010Z,7.05
2022-08-26T03:45:01.334Z,6.93
2022-08-26T03:47:27.678Z,6.93
2022-08-26T03:49:54.173Z,6.75
2022-08-26T03:52:20.528Z,6.60
2022-08-26T03:54:47.210Z,6.78
2022-08-26T03:57:13.556Z,7.10
2022-08-26T03:59:43.194Z,7.40
2022-08-26T04:02:11.670Z,6.57
2022-08-26T04:04:38.536Z,7.22
2022-08-26T04:07:05.075Z,6.85
2022-08-26T04:09:31.708Z,6.93
2022-08-26T04:12:02.030Z,7.22
2022-08-26T04:14:29.750Z,7.43
2022-08-26T04:16:56.583Z,7.45
2022-08-26T04:19:24.529Z,7.18
2022-08-26T04:21:53.076Z,6.63
2022-08-26T04:24:21.106Z,7.18
2022-08-26T04:26:48.004Z,6.93
2022-08-26T04:29:15.773Z,7.40
2022-08-26T04:31:42.431Z,7.30
2022-08-26T04:34:11.076Z,7.68
2022-08-26T04:36:37.688Z,7.15
2022-08-26T04:39:04.126Z,6.82
2022-08-26T04:41:31.514Z,7.10
2022-08-26T04:43:58.037Z,7.03
2022-08-26T04:46:24.779Z,7.90
2022-08-26T04:48:52.297Z,7.20
2022-08-26T04:51:19.631Z,7.13
2022-08-26T04:53:46.021Z,7.20
2022-08-26T04:56:12.893Z,6.97
2022-08-26T04:58:39.227Z,7.82
2022-08-26T05:01:06.205Z,7.68
2022-08-26T05:03:32.612Z,7.53
2022-08-26T05:05:58.979Z,7.13
2022-08-26T05:08:25.443Z,7.32
2022-08-26T05:10:56.093Z,7.28
2022-08-26T05:13:24.745Z,7.00
2022-08-26T05:15:51.121Z,6.75
2022-08-26T05:18:20.644Z,6.88
2022-08-26T05:20:48.817Z,7.43
2022-08-26T05:23:15.474Z,7.07
2022-08-26T05:25:42.983Z,7.28
2022-08-26T05:28:10.188Z,7.00
2022-08-26T05:30:36.805Z,7.22
2022-08-26T05:33:03.625Z,7.15
2022-08-26T05:35:32.014Z,6.53
2022-08-26T05:38:00.540Z,6.65
2022-08-26T05:40:27.394Z,7.45
2022-08-26T05:42:53.846Z,7.15
2022-08-26T05:45:20.331Z,7.28
2022-08-26T05:47:47.197Z,6.90
2022-08-26T05:50:13.810Z,6.72
2022-08-26T05:52:40.732Z,7.30
2022-08-26T05:55:07.255Z,6.60
2022-08-26T05:57:37.467Z,7.40
2022-08-26T06:00:06.803Z,7.70
2022-08-26T06:02:39.466Z,6.95
2022-08-26T06:05:06.297Z,8.00
2022-08-26T06:07:52.700Z,7.57
2022-08-26T06:10:32.193Z,8.40
2022-08-26T06:13:02.253Z,7.97
2022-08-26T06:15:38.684Z,8.15
2022-08-26T06:18:08.637Z,7.93
2022-08-26T06:20:36.529Z,7.97
2022-08-26T06:23:22.061Z,7.70
2022-08-26T06:25:50.369Z,8.48
2022-08-26T06:28:17.225Z,8.57
2022-08-26T06:30:44.508Z,8.10
2022-08-26T06:33:11.536Z,7.72
2022-08-26T06:35:39.441Z,8.15
2022-08-26T06:38:06.272Z,9.30
2022-08-26T06:40:32.885Z,6.97
2022-08-26T06:42:59.323Z,8.90
2022-08-26T06:45:25.924Z,8.60
2022-08-26T06:47:52.776Z,8.50
2022-08-26T06:50:19.090Z,8.50
2022-08-26T06:52:45.426Z,8.80
2022-08-26T06:55:11.882Z,8.73
2022-08-26T06:57:39.721Z,8.32
2022-08-26T07:00:11.363Z,8.35
2022-08-26T07:02:39.162Z,8.65
2022-08-26T07:05:06.060Z,7.95
2022-08-26T07:07:34.075Z,7.95
2022-08-26T07:10:00.956Z,7.53
2022-08-26T07:12:28.052Z,7.80
2022-08-26T07:14:54.469Z,7.30
2022-08-26T07:17:22.131Z,7.22
2022-08-26T07:19:51.493Z,7.25
2022-08-26T07:22:19.027Z,6.60
2022-08-26T07:24:46.484Z,6.65
2022-08-26T07:27:14.770Z,6.75
2022-08-26T07:29:43.281Z,7.15
2022-08-26T07:32:10.113Z,7.70
2022-08-26T07:34:37.616Z,7.72
2022-08-26T07:37:05.264Z,7.45
2022-08-26T07:39:35.410Z,7.68
2022-08-26T07:42:03.841Z,7.88
2022-08-26T07:44:35.085Z,7.85
2022-08-26T07:47:01.546Z,7.90
2022-08-26T07:49:28.517Z,8.45
2022-08-26T07:51:55.345Z,9.85
2022-08-26T07:54:26.694Z,12.30
2022-08-26T07:56:53.658Z,10.07
2022-08-26T07:59:23.251Z,10.32
2022-08-26T08:01:49.681Z,11.38
2022-08-26T08:04:17.918Z,12.95
2022-08-26T08:06:45.334Z,12.70
2022-08-26T08:09:12.469Z,12.73
2022-08-26T08:11:39.171Z,12.00
2022-08-26T08:14:08.442Z,12.10
2022-08-26T08:16:41.897Z,13.43
2022-08-26T08:19:12.669Z,13.25
2022-08-26T08:21:40.338Z,12.63
2022-08-26T08:24:07.042Z,12.38
2022-08-26T08:26:35.106Z,14.70
2022-08-26T08:29:01.570Z,16.40
2022-08-26T08:34:16.459Z,18.20
2022-08-26T08:36:46.125Z,18.80
2022-08-26T08:39:12.555Z,16.40
2022-08-26T08:41:45.549Z,17.45
2022-08-26T08:46:56.237Z,21.33
2022-08-26T08:49:25.789Z,18.42
2022-08-26T08:51:54.313Z,18.90
2022-08-26T08:54:22.882Z,17.25
2022-08-26T08:56:58.081Z,19.35
2022-08-26T08:59:27.576Z,19.05
2022-08-26T09:01:54.234Z,20.88
2022-08-26T09:04:32.797Z,19.55
2022-08-26T09:07:00.328Z,20.75
2022-08-26T09:09:29.731Z,21.23
2022-08-26T09:11:58.576Z,20.52
2022-08-26T09:14:25.396Z,21.40
2022-08-26T09:17:12.129Z,20.25
2022-08-26T09:20:01.640Z,18.60
2022-08-26T09:22:32.918Z,19.17
2022-08-26T09:25:01.397Z,15.73
2022-08-26T09:27:37.759Z,20.13
2022-08-26T09:30:04.539Z,18.83
2022-08-26T09:32:32.077Z,18.92
2022-08-26T09:35:07.708Z,19.58
2022-08-26T09:37:40.008Z,20.30
2022-08-26T09:40:22.417Z,21.05
2022-08-26T09:43:22.651Z,22.23
2022-08-26T09:45:58.475Z,24.27
2022-08-26T09:48:34.821Z,20.65
2022-08-26T09:51:04.477Z,21.95
2022-08-26T09:53:36.548Z,21.92
2022-08-26T09:56:25.528Z,23.13
2022-08-26T09:58:54.577Z,24.55
2022-08-26T10:01:24.096Z,24.27
2022-08-26T10:03:51.282Z,23.58
2022-08-26T10:06:17.772Z,25.23
2022-08-26T10:09:10.763Z,24.35
2022-08-26T10:11:39.690Z,25.25
2022-08-26T10:14:15.566Z,23.48
2022-08-26T10:17:02.351Z,22.63
2022-08-26T10:19:41.534Z,23.67
2022-08-26T10:22:25.833Z,22.45
2022-08-26T10:24:55.278Z,22.08
2022-08-26T10:27:24.918Z,22.15
2022-08-26T10:29:53.879Z,21.50
2022-08-26T10:32:31.088Z,20.98
2022-08-26T10:34:57.684Z,21.58
2022-08-26T10:37:26.004Z,22.65
2022-08-26T10:40:00.830Z,22.02
2022-08-26T10:42:29.213Z,23.05
2022-08-26T10:44:58.748Z,20.27
2022-08-26T10:47:28.187Z,22.08
2022-08-26T10:50:00.015Z,23.33
2022-08-26T10:52:48.149Z,22.42
2022-08-26T10:55:34.937Z,24.63
2022-08-26T10:58:11.630Z,25.20
2022-08-26T11:01:10.534Z,25.83
2022-08-26T11:03:58.103Z,26.42
2022-08-26T11:06:26.809Z,26.30
2022-08-26T11:08:54.705Z,27.27
2022-08-26T11:11:39.469Z,28.17
2022-08-26T11:14:33.053Z,27.52
2022-08-26T11:17:10.237Z,27.77
2022-08-26T11:20:00.102Z,28.42
2022-08-26T11:22:30.969Z,27.85
2022-08-26T11:24:57.366Z,32.00
2022-08-26T11:27:24.741Z,30.63
2022-08-26T11:30:00.450Z,28.30
2022-08-26T11:32:45.641Z,28.55
2022-08-26T11:35:19.130Z,32.75
2022-08-26T11:37:47.317Z,30.52
2022-08-26T11:40:41.546Z,29.90
2022-08-26T11:43:13.068Z,30.05
2022-08-26T11:45:44.358Z,28.95
2022-08-26T11:48:14.648Z,28.63
2022-08-26T11:50:40.981Z,29.60
2022-08-26T11:53:07.784Z,28.83
2022-08-26T11:55:35.517Z,26.42
2022-08-26T11:58:04.863Z,27.23
2022-08-26T12:00:33.491Z,29.80
2022-08-26T12:03:02.279Z,28.58
2022-08-26T12:05:35.017Z,28.63
2022-08-26T12:08:06.666Z,28.70
2022-08-26T12:10:34.042Z,27.60
2022-08-26T12:13:01.416Z,27.77
2022-08-26T12:15:29.859Z,27.48
2022-08-26T12:17:56.809Z,27.17
2022-08-26T12:20:31.496Z,26.52
2022-08-26T12:22:59.073Z,27.23
2022-08-26T12:25:25.994Z,26.52
2022-08-26T12:27:53.988Z,25.75
2022-08-26T12:30:24.420Z,27.60
2022-08-26T12:33:02.912Z,26.98
2022-08-26T12:35:42.763Z,26.95
2022-08-26T12:38:10.240Z,27.15
2022-08-26T12:40:40.725Z,25.77
2022-08-26T12:43:08.389Z,27.05
2022-08-26T12:45:36.462Z,25.48
2022-08-26T12:48:06.747Z,25.27
2022-08-26T12:50:34.850Z,24.17
2022-08-26T12:53:10.312Z,22.45
2022-08-26T12:55:36.613Z,24.45
2022-08-26T12:58:11.646Z,22.83
2022-08-26T13:00:40.822Z,21.65
2022-08-26T13:03:26.303Z,21.80
2022-08-26T13:05:52.657Z,20.92
2022-08-26T13:08:27.215Z,20.77
2022-08-26T13:11:04.876Z,18.48
2022-08-26T13:13:31.413Z,16.77
2022-08-26T13:15:57.779Z,14.85
2022-08-26T13:18:25.315Z,15.55
2022-08-26T13:20:51.667Z,16.65
2022-08-26T13:23:19.077Z,16.80
2022-08-26T13:25:45.423Z,15.13
2022-08-26T13:28:11.806Z,15.18
2022-08-26T13:30:39.006Z,14.60
2022-08-26T13:33:08.187Z,14.75
2022-08-26T13:35:35.598Z,15.85
2022-08-26T13:38:01.974Z,16.77
2022-08-26T13:40:32.452Z,15.93
2022-08-26T13:43:00.846Z,16.67
2022-08-26T13:45:27.651Z,16.30
2022-08-26T13:47:54.059Z,17.02
2022-08-26T13:50:20.392Z,15.45
2022-08-26T13:52:46.781Z,15.35
2022-08-26T13:55:13.130Z,15.65
2022-08-26T13:57:39.488Z,14.98
2022-08-26T14:00:06.310Z,15.02
2022-08-26T14:02:37.768Z,14.98
2022-08-26T14:05:04.657Z,14.70
2022-08-26T14:07:30.986Z,14.25
2022-08-26T14:09:57.722Z,14.05
2022-08-26T14:12:24.786Z,13.88
2022-08-26T14:14:51.113Z,14.88
2022-08-26T14:17:21.247Z,14.25
2022-08-26T14:19:49.006Z,14.85
2022-08-26T14:22:17.214Z,15.15
2022-08-26T14:24:44.314Z,15.48
2022-08-26T14:27:12.626Z,15.68
2022-08-26T14:29:39.461Z,15.05
2022-08-26T14:32:12.089Z,17.17
2022-08-26T14:34:41.816Z,17.10
2022-08-26T14:37:09.882Z,17.02
2022-08-26T14:39:38.857Z,17.83
2022-08-26T14:42:05.556Z,16.52
2022-08-26T14:44:32.776Z,17.60
2022-08-26T14:47:00.913Z,19.05
2022-08-26T14:49:27.760Z,18.40
2022-08-26T14:51:54.756Z,17.52
2022-08-26T14:54:21.247Z,17.40
2022-08-26T14:56:52.308Z,17.15
2022-08-26T14:59:21.334Z,16.38
2022-08-26T15:01:48.149Z,17.13
2022-08-26T15:04:15.128Z,16.55
2022-08-26T15:06:41.473Z,16.55
2022-08-26T15:09:08.460Z,15.95
2022-08-26T15:11:34.937Z,15.07
2022-08-26T15:14:01.682Z,15.25
2022-08-26T15:16:29.087Z,14.57
2022-08-26T15:18:55.660Z,14.10
2022-08-26T15:21:22.414Z,14.18
2022-08-26T15:23:49.558Z,13.70
2022-08-26T15:26:16.731Z,13.82
2022-08-26T15:28:43.452Z,13.00
2022-08-26T15:31:10.003Z,13.13
2022-08-26T15:33:36.864Z,12.15
2022-08-26T15:36:03.829Z,11.45
2022-08-26T15:38:31.290Z,11.27
2022-08-26T15:41:02.461Z,12.13
2022-08-26T15:43:29.460Z,11.30
2022-08-26T15:45:56.211Z,11.18
2022-08-26T15:48:24.475Z,11.20
2022-08-26T15:50:52.378Z,10.55
2022-08-26T15:53:18.867Z,11.23
2022-08-26T15:55:45.439Z,11.52
2022-08-26T15:58:11.945Z,12.23
2022-08-26T16:00:39.481Z,13.10
2022-08-26T16:03:06.775Z,14.20
2022-08-26T16:05:36.209Z,15.93
2022-08-26T16:08:03.485Z,17.80
2022-08-26T16:10:31.040Z,18.63
2022-08-26T16:12:57.382Z,19.73
2022-08-26T16:15:23.689Z,21.88
2022-08-26T16:17:50.085Z,22.08
2022-08-26T16:20:16.847Z,21.13
2022-08-26T16:22:43.224Z,21.05
2022-08-26T16:25:10.303Z,24.15
2022-08-26T16:27:36.691Z,23.05
2022-08-26T16:30:06.837Z,24.08
2022-08-26T16:32:33.169Z,26.42
2022-08-26T16:34:59.570Z,28.33
2022-08-26T16:37:25.949Z,28.38
2022-08-26T16:39:52.334Z,27.75
2022-08-26T16:42:18.710Z,29.10
2022-08-26T16:44:45.212Z,28.63
2022-08-26T16:47:15.479Z,30.67
2022-08-26T16:49:42.052Z,29.02
2022-08-26T16:52:09.063Z,29.50
2022-08-26T16:54:35.677Z,29.52
2022-08-26T16:57:02.110Z,30.55
2022-08-26T16:59:28.445Z,28.55
2022-08-26T17:01:54.868Z,28.08
2022-08-26T17:04:21.829Z,26.17
2022-08-26T17:06:48.248Z,25.92
2022-08-26T17:09:14.739Z,25.75
2022-08-26T17:11:41.128Z,25.30
2022-08-26T17:14:07.593Z,25.17
2022-08-26T17:16:34.152Z,25.58
2022-08-26T17:19:00.783Z,24.50
2022-08-26T17:21:27.881Z,25.75
2022-08-26T17:23:54.623Z,24.70
2022-08-26T17:26:21.104Z,25.85
2022-08-26T17:28:47.565Z,25.25
2022-08-26T17:31:14.035Z,25.48
2022-08-26T17:33:40.555Z,25.67
2022-08-26T17:36:07.773Z,25.40
2022-08-26T17:38:34.470Z,24.40
2022-08-26T17:41:00.815Z,23.60
2022-08-26T17:43:27.255Z,22.80
2022-08-26T17:45:57.830Z,23.50
2022-08-26T17:48:26.372Z,22.17
2022-08-26T17:50:53.476Z,22.42
2022-08-26T17:53:20.334Z,23.30
2022-08-26T17:55:47.050Z,24.08
2022-08-26T17:58:14.636Z,22.63
2022-08-26T18:00:45.324Z,24.08
2022-08-26T18:03:11.763Z,24.25
2022-08-26T18:05:38.157Z,23.80
2022-08-26T18:08:04.506Z,23.73
2022-08-26T18:10:31.283Z,23.75
2022-08-26T18:12:57.682Z,24.42
2022-08-26T18:15:24.083Z,24.10
2022-08-26T18:17:50.473Z,23.75
2022-08-26T18:20:18.388Z,23.10
2022-08-26T18:22:45.337Z,23.17
2022-08-26T18:25:12.293Z,23.33
2022-08-26T18:27:38.648Z,21.63
2022-08-26T18:30:05.866Z,21.58
2022-08-26T18:32:32.209Z,22.58
2022-08-26T18:34:58.556Z,21.92
2022-08-26T18:37:26.799Z,19.63
2022-08-26T18:39:55.952Z,19.83
2022-08-26T18:42:23.941Z,19.98
2022-08-26T18:44:50.721Z,19.58
2022-08-26T18:47:17.597Z,20.48
2022-08-26T18:49:44.866Z,18.42
2022-08-26T18:52:11.211Z,19.27
2022-08-26T18:54:37.902Z,18.63
2022-08-26T18:57:04.485Z,18.88
2022-08-26T18:59:33.477Z,17.98
2022-08-26T19:02:00.934Z,15.73
2022-08-26T19:04:27.423Z,15.48
2022-08-26T19:06:53.835Z,15.60
2022-08-26T19:09:20.921Z,14.68
2022-08-26T19:11:49.641Z,15.80
2022-08-26T19:14:16.441Z,14.32
2022-08-26T19:16:44.436Z,14.18
2022-08-26T19:19:11.493Z,14.13
2022-08-26T19:21:38.119Z,14.93
2022-08-26T19:24:15.114Z,14.30
2022-08-26T19:26:42.704Z,14.77
2022-08-26T19:29:09.357Z,14.32
2022-08-26T19:31:35.923Z,14.07
2022-08-26T19:34:02.598Z,13.60
2022-08-26T19:36:29.162Z,13.80
2022-08-26T19:38:56.621Z,14.15
2022-08-26T19:41:31.694Z,13.45
2022-08-26T19:44:04.833Z,14.20
2022-08-26T19:46:32.025Z,14.10
2022-08-26T19:48:58.509Z,13.25
2022-08-26T19:51:26.741Z,14.00
2022-08-26T19:53:54.400Z,14.05
2022-08-26T19:56:21.409Z,13.95
2022-08-26T19:58:48.079Z,13.73
2022-08-26T20:01:15.307Z,14.00
2022-08-26T20:03:42.075Z,13.65
2022-08-26T20:06:09.440Z,14.15
2022-08-26T20:08:36.903Z,14.23
2022-08-26T20:11:08.973Z,13.38
2022-08-26T20:13:35.788Z,13.82
2022-08-26T20:16:02.145Z,13.35
2022-08-26T20:18:48.423Z,13.10
2022-08-26T20:21:26.760Z,13.00
2022-08-26T20:23:54.168Z,13.00
2022-08-26T20:26:20.734Z,12.80
2022-08-26T20:28:47.137Z,12.25
2022-08-26T20:31:18.452Z,12.68
2022-08-26T20:33:46.416Z,13.10
2022-08-26T20:36:13.740Z,12.10
2022-08-26T20:38:40.116Z,12.70
2022-08-26T20:41:06.449Z,12.32
2022-08-26T20:43:32.805Z,12.90
2022-08-26T20:45:59.686Z,12.80
2022-08-26T20:48:26.067Z,12.25
2022-08-26T20:50:55.888Z,11.80
2022-08-26T20:53:22.321Z,12.27
2022-08-26T20:55:53.669Z,11.98
2022-08-26T20:58:20.797Z,11.43
2022-08-26T21:00:47.365Z,11.88
2022-08-26T21:03:14.274Z,12.25
2022-08-26T21:05:40.706Z,12.13
2022-08-26T21:08:07.056Z,12.57
2022-08-26T21:10:33.520Z,11.77
2022-08-26T21:13:00.404Z,11.55
2022-08-26T21:15:26.922Z,11.52
2022-08-26T21:17:54.258Z,12.40
2022-08-26T21:20:20.773Z,12.60
2022-08-26T21:22:48.181Z,11.68
2022-08-26T21:25:14.642Z,11.75
2022-08-26T21:27:40.997Z,12.23
2022-08-26T21:30:07.712Z,13.00
2022-08-26T21:32:34.041Z,12.60
2022-08-26T21:35:00.367Z,11.68
2022-08-26T21:37:27.820Z,12.00
2022-08-26T21:39:55.027Z,12.65
2022-08-26T21:42:21.777Z,12.35
2022-08-26T21:44:52.728Z,11.93
2022-08-26T21:47:22.755Z,12.27
2022-08-26T21:49:49.186Z,12.65
2022-08-26T21:52:15.555Z,11.98
2022-08-26T21:54:41.894Z,12.65
2022-08-26T21:57:15.850Z,11.65
2022-08-26T21:59:42.212Z,12.52
2022-08-26T22:02:08.586Z,11.77
2022-08-26T22:04:35.693Z,12.27
2022-08-26T22:07:02.041Z,11.73
2022-08-26T22:09:30.797Z,11.65
2022-08-26T22:11:57.451Z,11.93
2022-08-26T22:14:30.695Z,12.43
2022-08-26T22:16:58.395Z,12.65
2022-08-26T22:19:24.905Z,11.57
2022-08-26T22:21:53.186Z,11.60
2022-08-26T22:24:20.674Z,11.95
2022-08-26T22:26:47.796Z,11.57
2022-08-26T22:29:14.601Z,11.82
2022-08-26T22:31:41.472Z,11.57
2022-08-26T22:34:09.175Z,11.95
2022-08-26T22:36:43.248Z,11.52
2022-08-26T22:39:10.992Z,11.73
2022-08-26T22:41:37.348Z,11.70
2022-08-26T22:44:03.842Z,12.20
2022-08-26T22:46:30.234Z,10.82
2022-08-26T22:48:56.651Z,11.60
2022-08-26T22:51:23.027Z,11.18
2022-08-26T22:53:49.404Z,10.75
2022-08-26T22:56:18.179Z,10.05
2022-08-26T22:58:45.397Z,11.15
2022-08-26T23:01:11.766Z,11.23
2022-08-26T23:03:38.165Z,11.40
2022-08-26T23:06:05.876Z,11.15
2022-08-26T23:08:32.307Z,10.60
2022-08-26T23:10:58.650Z,10.85
2022-08-26T23:13:24.992Z,11.05
2022-08-26T23:15:59.492Z,11.32
2022-08-26T23:18:25.839Z,10.90
2022-08-26T23:20:52.149Z,10.90
2022-08-26T23:23:18.497Z,11.15
2022-08-26T23:25:44.829Z,11.45
2022-08-26T23:28:12.675Z,10.65
2022-08-26T23:30:39.012Z,11.00
2022-08-26T23:33:05.332Z,10.90
2022-08-26T23:35:31.668Z,11.32
2022-08-26T23:37:59.275Z,11.25
2022-08-26T23:40:31.892Z,12.50
2022-08-26T23:42:59.357Z,12.20
2022-08-26T23:45:26.184Z,12.45
2022-08-26T23:47:53.148Z,11.45
2022-08-26T23:50:20.434Z,11.98
2022-08-26T23:53:05.547Z,11.85
2022-08-26T23:55:38.702Z,12.02
2022-08-26T23:58:05.813Z,11.53
